Time;durP1;ratioP1;P1;durP2;ratioP2;P2;SDS_P1;SDS_P2;PMS_P1;PMS_P2;Temp;Humidity;BMP_temperature;BMP_pressure;BME280_temperature;BME280_humidity;BME280_pressure;Samples;Min_cycle;Max_cycle;Signal;HPM_P1;HPM_P2
2023/09/06 00:00:28;;;;;;;5.60;4.90;;;;;;;;;;4949266;28;20083;-74
2023/09/06 00:02:55;;;;;;;4.22;3.83;;;;;;;;;;4939952;28;20066;-76
2023/09/06 00:05:21;;;;;;;4.78;4.28;;;;;;;;;;4956178;28;20054;-76
2023/09/06 00:07:47;;;;;;;6.38;5.30;;;;;;;;;;4955672;28;20546;-83
2023/09/06 00:10:14;;;;;;;6.63;5.70;;;;;;;;;;4943529;28;20059;-78
2023/09/06 00:12:40;;;;;;;5.85;5.18;;;;;;;;;;4953783;28;20074;-77
2023/09/06 00:15:08;;;;;;;7.93;5.50;;;;;;;;;;4934490;28;20069;-77
2023/09/06 00:17:37;;;;;;;7.07;4.35;;;;;;;;;;4939410;28;20590;-78
2023/09/06 00:22:53;;;;;;;7.05;5.00;;;15.90;99.90;;;;;;4946817;28;20077;-77
2023/09/06 00:25:19;;;;;;;7.55;5.15;;;;;;;;;;4955893;28;20057;-75
2023/09/06 00:27:45;;;;;;;5.88;4.53;;;;;;;;;;4956532;28;20097;-73
2023/09/06 00:30:11;;;;;;;5.88;4.25;;;;;;;;;;4957200;28;20616;-80
2023/09/06 00:32:37;;;;;;;6.50;5.22;;;;;;;;;;4961268;28;20058;-74
2023/09/06 00:35:03;;;;;;;5.05;4.53;;;15.70;99.90;;;;;;4941952;28;20183;-74
2023/09/06 00:37:37;;;;;;;6.93;3.78;;;15.60;99.90;;;;;;4953335;28;20093;-72
2023/09/06 00:40:17;;;;;;;3.97;3.53;;;16.60;99.90;;;;;;4947778;28;20401;-78
2023/09/06 00:42:43;;;;;;;4.70;2.95;;;;;;;;;;4951774;28;20062;-79
2023/09/06 00:45:09;;;;;;;5.82;3.35;;;;;;;;;;4957898;28;20054;-80
2023/09/06 00:47:35;;;;;;;4.95;3.50;;;;;;;;;;4958960;28;20054;-79
2023/09/06 00:50:02;;;;;;;4.55;3.35;;;;;;;;;;4959730;28;20451;-76
2023/09/06 00:52:28;;;;;;;6.38;3.72;;;;;;;;;;4955697;28;20050;-77
2023/09/06 00:54:54;;;;;;;4.07;3.67;;;;;;;;;;4959611;28;20062;-74
2023/09/06 00:57:21;;;;;;;6.43;3.95;;;;;;;;;;4959470;28;20054;-78
2023/09/06 00:59:49;;;;;;;6.88;3.33;;;15.10;99.90;;;;;;4936595;28;20047;-79
2023/09/06 01:02:15;;;;;;;4.63;3.80;;;;;;;;;;4953452;28;20493;-75
2023/09/06 01:04:42;;;;;;;4.20;3.80;;;;;;;;;;4958810;28;20062;-72
2023/09/06 01:07:09;;;;;;;4.85;4.35;;;15.00;99.90;;;;;;4959185;28;20125;-73
2023/09/06 01:09:36;;;;;;;9.98;7.00;;;15.00;99.90;;;;;;4958214;28;20847;-75
2023/09/06 01:12:02;;;;;;;14.10;9.68;;;;;;;;;;4957199;28;20081;-76
2023/09/06 01:14:28;;;;;;;11.18;10.15;;;;;;;;;;4959886;28;20046;-75
2023/09/06 01:16:55;;;;;;;10.80;9.70;;;;;;;;;;4934267;28;20057;-79
2023/09/06 01:19:25;;;;;;;10.38;9.25;;;15.10;99.90;;;;;;4961778;28;20484;-77
2023/09/06 01:22:28;;;;;;;11.27;10.07;;;15.20;99.90;;;;;;4953087;28;20062;-73
2023/09/06 01:24:55;;;;;;;11.45;10.35;;;15.30;99.90;;;;;;4953579;28;20138;-75
2023/09/06 01:27:21;;;;;;;13.18;10.45;;;;;;;;;;4951988;28;20171;-76
2023/09/06 01:29:47;;;;;;;15.20;11.10;;;;;;;;;;4952264;28;20062;-75
2023/09/06 01:32:14;;;;;;;11.88;10.20;;;15.40;99.90;;;;;;4958489;28;20786;-76
2023/09/06 01:34:40;;;;;;;13.18;10.18;;;;;;;;;;4947786;28;20062;-77
2023/09/06 01:37:06;;;;;;;12.20;10.88;;;;;;;;;;4942309;28;20096;-76
2023/09/06 01:39:32;;;;;;;11.80;10.30;;;;;;;;;;4955325;28;20527;-76
2023/09/06 01:41:58;;;;;;;11.02;9.75;;;;;;;;;;4956579;28;20117;-75
2023/09/06 01:44:26;;;;;;;11.15;9.63;;;;;;;;;;4942669;28;20054;-74
2023/09/06 01:46:53;;;;;;;11.60;10.07;;;;;;;;;;4974222;28;20138;-75
2023/09/06 01:49:19;;;;;;;10.75;8.65;;;;;;;;;;4938063;28;20058;-78
2023/09/06 01:51:45;;;;;;;12.13;8.88;;;;;;;;;;4959021;28;20483;-74
2023/09/06 01:54:11;;;;;;;10.40;7.82;;;;;;;;;;4958532;28;20085;-74
2023/09/06 01:56:37;;;;;;;9.27;8.32;;;;;;;;;;4948756;28;20504;-79
2023/09/06 01:59:04;;;;;;;12.27;8.45;;;;;;;;;;4965669;28;20063;-78
2023/09/06 02:01:30;;;;;;;11.13;7.65;;;;;;;;;;4944022;28;20065;-78
2023/09/06 02:03:56;;;;;;;10.18;6.40;;;;;;;;;;4958148;28;20050;-78
2023/09/06 02:06:23;;;;;;;6.53;4.88;;;;;;;;;;4949321;28;20069;-77
2023/09/06 02:08:49;;;;;;;5.88;5.28;;;;;;;;;;4942073;28;20061;-75
2023/09/06 02:11:15;;;;;;;3.72;3.28;;;;;;;;;;4959131;28;20054;-73
2023/09/06 02:13:41;;;;;;;4.97;3.55;;;;;;;;;;4953910;28;20137;-77
2023/09/06 02:16:07;;;;;;;3.45;2.60;;;;;;;;;;4948824;28;20053;-80
2023/09/06 02:18:33;;;;;;;5.57;3.22;;;;;;;;;;4958468;28;20058;-75
2023/09/06 02:21:02;;;;;;;3.67;3.25;;;;;;;;;;4955189;28;20312;-77
2023/09/06 02:23:28;;;;;;;4.63;3.85;;;;;;;;;;4957845;28;20623;-76
2023/09/06 02:25:56;;;;;;;7.57;5.18;;;;;;;;;;4933916;28;20162;-76
2023/09/06 02:28:22;;;;;;;5.57;4.85;;;;;;;;;;4938292;28;20062;-79
2023/09/06 02:30:48;;;;;;;6.03;4.05;;;;;;;;;;4970392;28;20093;-78
2023/09/06 02:33:14;;;;;;;5.20;4.30;;;;;;;;;;4955894;28;20054;-76
2023/09/06 02:35:44;;;;;;;5.00;4.50;;;14.40;99.90;;;;;;4954705;28;20057;-78
2023/09/06 02:38:13;;;;;;;7.40;4.75;;;14.40;99.90;;;;;;4955967;28;20069;-77
2023/09/06 02:40:42;;;;;;;11.00;5.93;;;;;;;;;;4953576;28;20853;-76
2023/09/06 02:43:10;;;;;;;12.57;4.25;;;12.80;99.90;;;;;;4942247;28;20092;-80
2023/09/06 02:45:37;;;;;;;4.32;3.83;;;;;;;;;;4953697;28;20065;-75
2023/09/06 02:48:12;;;;;;;5.60;4.40;;;14.60;99.90;;;;;;4958081;28;20046;-74
2023/09/06 02:50:39;;;;;;;3.95;3.20;;;;;;;;;;4933815;28;20202;-77
2023/09/06 02:53:15;;;;;;;5.47;3.42;;;;;;;;;;4931664;28;20066;-79
2023/09/06 02:55:42;;;;;;;4.50;3.70;;;;;;;;;;4954615;28;20062;-74
2023/09/06 02:58:08;;;;;;;6.15;4.25;;;;;;;;;;4956919;28;20055;-75
2023/09/06 03:00:36;;;;;;;5.75;4.43;;;;;;;;;;4954625;28;20141;-78
2023/09/06 03:03:05;;;;;;;6.50;4.50;;;14.10;99.90;;;;;;4956551;28;20103;-81
2023/09/06 03:05:31;;;;;;;6.35;4.35;;;14.80;99.90;;;;;;4946650;28;20059;-78
2023/09/06 03:07:58;;;;;;;6.28;5.05;;;;;;;;;;4954707;28;20542;-75
2023/09/06 03:10:24;;;;;;;4.60;3.53;;;;;;;;;;4957132;28;20066;-80
2023/09/06 03:12:55;;;;;;;4.35;3.85;;;14.10;99.90;;;;;;4940026;28;20138;-76
2023/09/06 03:15:28;;;;;;;4.75;3.30;;;;;;;;;;4958167;28;20062;-81
2023/09/06 03:17:54;;;;;;;6.43;3.65;;;;;;;;;;4950152;28;20093;-78
2023/09/06 03:20:33;;;;;;;4.40;3.63;;;;;;;;;;4946194;28;20492;-81
2023/09/06 03:23:01;;;;;;;4.88;3.80;;;13.90;99.90;;;;;;4958179;28;20806;-77
2023/09/06 03:25:28;;;;;;;9.50;4.75;;;13.90;99.90;;;;;;4957818;28;20069;-81
2023/09/06 03:28:01;;;;;;;5.50;3.17;;;13.80;99.90;;;;;;4940970;28;20058;-80
2023/09/06 03:30:33;;;;;;;4.70;4.25;;;14.50;99.90;;;;;;4946017;28;20417;-81
2023/09/06 03:33:00;;;;;;;4.70;3.72;;;;;;;;;;4968357;28;20097;-79
2023/09/06 03:35:27;;;;;;;5.90;5.18;;;;;;;;;;4938856;28;20087;-80
2023/09/06 03:37:53;;;;;;;79.18;8.73;;;;;;;;;;4957436;28;20061;-81
2023/09/06 03:40:25;;;;;;;7.70;5.32;;;;;;;;;;4936497;28;20054;-80
2023/09/06 03:42:55;;;;;;;19.85;6.00;;;13.90;99.90;;;;;;4942925;28;20054;-82
2023/09/06 03:45:24;;;;;;;24.40;5.18;;;14.00;99.90;;;;;;4954050;28;20141;-81
2023/09/06 03:47:51;;;;;;;5.10;2.78;;;14.00;99.90;;;;;;4959343;28;20591;-78
2023/09/06 03:50:18;;;;;;;8.43;3.70;;;;;;;;;;4957622;28;20065;-85
2023/09/06 03:52:44;;;;;;;5.45;3.92;;;;;;;;;;4958044;28;20116;-82
2023/09/06 03:55:10;;;;;;;9.05;5.53;;;13.90;99.90;;;;;;4958694;28;20141;-79
2023/09/06 03:57:37;;;;;;;11.30;8.18;;;;;;;;;;4957876;28;20778;-83
2023/09/06 04:02:49;;;;;;;9.27;6.15;;;;;;;;;;4952521;28;20138;-82
2023/09/06 04:05:15;;;;;;;9.65;5.40;;;;;;;;;;4958948;28;20066;-79
2023/09/06 04:07:43;;;;;;;5.97;4.78;;;14.00;99.90;;;;;;4959265;28;20401;-77
2023/09/06 04:10:16;;;;;;;8.80;5.28;;;;;;;;;;4955803;28;20070;-86
2023/09/06 04:12:45;;;;;;;8.85;7.07;;;13.90;99.90;;;;;;4961231;28;20054;-78
2023/09/06 04:15:14;;;;;;;12.25;7.93;;;;;;;;;;4948237;28;20059;-82
2023/09/06 04:17:41;;;;;;;10.65;8.35;;;;;;;;;;4955135;28;20050;-83
2023/09/06 04:20:20;;;;;;;8.05;6.68;;;14.00;99.90;;;;;;4939593;28;20055;-81
2023/09/06 04:22:47;;;;;;;11.00;8.23;;;14.00;99.90;;;;;;4940511;28;20494;-80
2023/09/06 04:25:19;;;;;;;6.90;6.20;;;14.00;99.90;;;;;;4929760;28;20055;-85
2023/09/06 04:27:46;;;;;;;13.18;8.40;;;;;;;;;;4947972;28;20079;-84
2023/09/06 04:30:15;;;;;;;11.95;9.13;;;14.10;99.90;;;;;;4921916;28;20137;-80
2023/09/06 04:32:44;;;;;;;14.77;10.10;;;14.10;99.90;;;;;;4933786;28;20110;-82
2023/09/06 04:35:11;;;;;;;15.30;10.85;;;;;;;;;;4935235;28;20596;-84
2023/09/06 04:37:38;;;;;;;13.25;10.57;;;;;;;;;;4941588;28;20069;-82
2023/09/06 04:40:08;;;;;;;14.15;9.95;;;14.30;99.90;;;;;;4938683;28;20138;-81
2023/09/06 04:42:35;;;;;;;13.82;10.18;;;;;;;;;;4929212;28;20062;-81
2023/09/06 04:45:01;;;;;;;14.45;10.85;;;;;;;;;;4935570;28;20129;-78
2023/09/06 04:47:27;;;;;;;14.23;9.90;;;;;;;;;;4941691;28;20694;-80
2023/09/06 04:49:53;;;;;;;13.73;10.20;;;;;;;;;;4941114;28;20059;-82
2023/09/06 04:52:19;;;;;;;13.23;11.00;;;;;;;;;;4941619;28;20047;-80
2023/09/06 04:54:46;;;;;;;12.38;11.07;;;;;;;;;;4941577;28;20573;-84
2023/09/06 04:57:12;;;;;;;12.68;10.93;;;;;;;;;;4939233;28;20057;-81
2023/09/06 04:59:38;;;;;;;14.82;10.82;;;;;;;;;;4937845;28;20785;-80
2023/09/06 05:02:04;;;;;;;12.75;10.05;;;;;;;;;;4941539;28;20062;-78
2023/09/06 05:04:30;;;;;;;13.88;10.73;;;;;;;;;;4937699;28;20523;-80
2023/09/06 05:06:56;;;;;;;13.38;10.40;;;;;;;;;;4941314;28;20058;-80
2023/09/06 05:09:22;;;;;;;14.65;11.38;;;;;;;;;;4929078;28;20134;-78
2023/09/06 05:11:48;;;;;;;13.95;10.13;;;;;;;;;;4935340;28;20051;-79
2023/09/06 05:14:15;;;;;;;14.60;9.75;;;;;;;;;;4924342;28;20126;-84
2023/09/06 05:16:41;;;;;;;9.07;8.05;;;;;;;;;;4922100;29;20055;-79
2023/09/06 05:19:07;;;;;;;13.88;9.23;;;;;;;;;;4952426;28;20128;-80
2023/09/06 05:21:35;;;;;;;12.30;8.93;;;;;;;;;;4976866;28;20062;-79
2023/09/06 05:24:01;;;;;;;11.20;9.45;;;;;;;;;;4943509;28;20128;-81
2023/09/06 05:26:27;;;;;;;12.07;9.32;;;;;;;;;;4960182;28;20050;-78
2023/09/06 05:28:53;;;;;;;15.05;9.98;;;;;;;;;;4954946;28;20054;-75
2023/09/06 05:31:19;;;;;;;9.55;8.55;;;;;;;;;;4942898;28;20058;-83
2023/09/06 05:33:46;;;;;;;11.70;10.48;;;;;;;;;;4939793;28;20071;-82
2023/09/06 05:36:12;;;;;;;14.93;11.35;;;;;;;;;;4935949;28;20550;-78
2023/09/06 05:38:38;;;;;;;14.18;10.73;;;;;;;;;;4943154;28;20710;-79
2023/09/06 05:41:04;;;;;;;11.00;9.23;;;;;;;;;;4944028;28;20140;-77
2023/09/06 05:43:30;;;;;;;15.15;9.18;;;;;;;;;;4960537;28;20142;-78
2023/09/06 05:45:57;;;;;;;10.32;8.77;;;;;;;;;;4960393;28;20535;-78
2023/09/06 05:48:23;;;;;;;10.90;9.35;;;;;;;;;;4948310;28;20051;-80
2023/09/06 05:50:49;;;;;;;11.30;9.05;;;;;;;;;;4940481;28;20068;-77
2023/09/06 05:53:15;;;;;;;12.98;8.75;;;;;;;;;;4957431;28;20054;-79
2023/09/06 05:55:41;;;;;;;13.27;8.55;;;;;;;;;;4960680;28;20054;-76
2023/09/06 05:58:08;;;;;;;10.65;7.35;;;;;;;;;;4959189;28;20058;-80
2023/09/06 06:00:34;;;;;;;9.82;6.38;;;;;;;;;;4958380;28;20175;-76
2023/09/06 06:03:02;;;;;;;7.85;5.60;;;;;;;;;;4970692;28;20101;-78
2023/09/06 06:05:28;;;;;;;6.95;5.20;;;;;;;;;;4961289;28;20058;-78
2023/09/06 06:07:57;;;;;;;6.53;4.88;;;;;;;;;;4948329;28;20054;-76
2023/09/06 06:10:40;;;;;;;5.65;4.28;;;;;;;;;;4918258;29;20065;-80
2023/09/06 06:13:08;;;;;;;7.13;4.70;;;;;;;;;;4917312;29;20856;-78
2023/09/06 06:15:34;;;;;;;4.78;4.10;;;;;;;;;;4922003;29;20646;-78
2023/09/06 06:18:01;;;;;;;6.38;3.72;;;;;;;;;;4919776;29;20095;-78
2023/09/06 06:20:27;;;;;;;5.55;3.80;;;;;;;;;;4920766;29;20110;-79
2023/09/06 06:22:53;;;;;;;7.70;3.35;;;;;;;;;;4919152;29;20059;-79
2023/09/06 06:25:19;;;;;;;5.32;3.38;;;;;;;;;;4898496;29;20062;-80
2023/09/06 06:27:45;;;;;;;4.38;3.63;;;;;;;;;;4913286;28;20564;-78
2023/09/06 06:30:11;;;;;;;5.72;4.07;;;28.10;92.50;;;;;;4903052;29;20058;-80
2023/09/06 06:32:38;;;;;;;4.85;4.00;;;;;;;;;;4910046;28;20070;-81
2023/09/06 06:35:08;;;;;;;5.38;3.20;;;;;;;;;;4918884;29;20059;-77
2023/09/06 06:37:34;;;;;;;5.63;3.40;;;;;;;;;;4902488;29;20139;-76
2023/09/06 06:40:01;;;;;;;5.25;3.50;;;;;;;;;;4918276;29;20315;-78
2023/09/06 06:42:31;;;;;;;4.55;3.50;;;25.00;95.80;;;;;;4963100;28;20146;-76
2023/09/06 06:44:58;;;;;;;5.35;3.53;;;;;;;;;;4950448;28;20531;-78
2023/09/06 06:47:24;;;;;;;6.93;3.47;;;;;;;;;;4956860;28;20140;-78
2023/09/06 06:49:51;;;;;;;8.98;3.50;;;26.50;93.90;;;;;;4955448;28;20705;-74
2023/09/06 06:52:17;;;;;;;4.50;3.45;;;;;;;;;;4954145;28;20073;-78
2023/09/06 06:54:43;;;;;;;5.93;3.72;;;;;;;;;;4959845;28;20066;-78
2023/09/06 06:57:10;;;;;;;5.25;3.05;;;;;;;;;;4958229;28;20467;-77
2023/09/06 06:59:36;;;;;;;4.93;3.70;;;;;;;;;;4967915;28;20090;-79
2023/09/06 07:02:02;;;;;;;8.82;3.83;;;;;;;;;;4953036;28;20096;-75
2023/09/06 07:04:28;;;;;;;7.07;3.78;;;;;;;;;;4957800;28;20053;-77
2023/09/06 07:06:54;;;;;;;5.15;3.60;;;;;;;;;;4958852;28;20065;-76
2023/09/06 07:09:20;;;;;;;5.93;3.75;;;;;;;;;;4945313;28;20703;-75
2023/09/06 07:11:47;;;;;;;10.02;4.00;;;;;;;;;;4935664;28;20061;-73
2023/09/06 07:14:13;;;;;;;9.02;4.28;;;;;;;;;;4955607;28;20081;-78
2023/09/06 07:16:40;;;;;;;4.15;3.38;;;;;;;;;;4942106;28;20089;-77
2023/09/06 07:19:06;;;;;;;7.78;4.10;;;;;;;;;;4958394;28;20141;-73
2023/09/06 07:21:32;;;;;;;7.00;3.70;;;;;;;;;;4955083;28;20137;-77
2023/09/06 07:23:58;;;;;;;9.57;3.95;;;;;;;;;;4956588;28;20101;-74
2023/09/06 07:26:24;;;;;;;4.70;3.83;;;;;;;;;;4959185;28;20046;-76
2023/09/06 07:28:51;;;;;;;6.70;3.63;;;;;;;;;;4919556;28;20066;-79
2023/09/06 07:31:17;;;;;;;5.93;3.70;;;;;;;;;;4931984;28;20056;-77
2023/09/06 07:33:44;;;;;;;4.85;3.58;;;;;;;;;;4944820;28;20170;-71
2023/09/06 07:36:14;;;;;;;8.25;3.45;;;;;;;;;;4951183;28;20759;-72
2023/09/06 07:38:40;;;;;;;8.88;4.20;;;;;;;;;;4962445;28;20556;-75
2023/09/06 07:41:08;;;;;;;6.85;4.05;;;20.90;99.90;;;;;;4951847;28;20054;-78
2023/09/06 07:43:36;;;;;;;7.35;4.22;;;20.70;99.90;;;;;;4936259;28;20051;-74
2023/09/06 07:46:02;;;;;;;4.15;3.60;;;20.80;99.90;;;;;;4953805;28;20057;-75
2023/09/06 07:48:30;;;;;;;4.75;4.25;;;20.80;99.90;;;;;;4954580;28;20069;-75
2023/09/06 07:50:56;;;;;;;5.38;3.63;;;;;;;;;;4954489;28;20054;-77
2023/09/06 07:53:26;;;;;;;4.68;3.42;;;;;;;;;;4948994;28;20058;-75
2023/09/06 07:55:53;;;;;;;10.07;3.75;;;21.10;99.90;;;;;;4956232;28;20053;-72
2023/09/06 07:58:19;;;;;;;6.68;3.67;;;;;;;;;;4951797;28;20114;-72
2023/09/06 08:00:45;;;;;;;6.10;3.60;;;;;;;;;;4949860;28;20054;-75
2023/09/06 08:03:11;;;;;;;6.50;3.85;;;;;;;;;;4944128;28;20061;-79
2023/09/06 08:05:38;;;;;;;5.32;3.50;;;;;;;;;;4955635;28;20102;-79
2023/09/06 08:08:06;;;;;;;4.72;3.47;;;21.40;99.90;;;;;;4950538;28;20081;-73
2023/09/06 08:10:33;;;;;;;5.63;3.88;;;21.60;99.90;;;;;;4969440;28;20077;-75
2023/09/06 08:12:59;;;;;;;7.30;3.55;;;;;;;;;;4956647;28;20058;-76
2023/09/06 08:15:25;;;;;;;4.20;2.88;;;;;;;;;;4955695;28;20094;-74
2023/09/06 08:17:52;;;;;;;5.68;3.22;;;;;;;;;;4945422;28;20139;-76
2023/09/06 08:20:18;;;;;;;3.17;2.40;;;;;;;;;;4956114;28;20086;-81
2023/09/06 08:22:47;;;;;;;3.00;2.50;;;24.80;99.90;;;;;;4940826;28;20070;-73
2023/09/06 08:25:18;;;;;;;4.53;2.42;;;26.50;99.90;;;;;;4949752;28;20208;-76
2023/09/06 08:27:44;;;;;;;6.30;2.35;;;27.90;98.40;;;;;;4955759;28;20236;-79
2023/09/06 08:30:12;;;;;;;5.40;2.10;;;29.00;95.30;;;;;;4956757;28;20093;-73
2023/09/06 08:32:39;;;;;;;3.20;1.90;;;30.00;93.00;;;;;;4950261;28;20058;-76
2023/09/06 08:35:11;;;;;;;3.85;1.90;;;30.70;90.30;;;;;;4937957;28;20062;-78
2023/09/06 08:37:38;;;;;;;2.88;1.52;;;;;;;;;;4951955;28;20081;-81
2023/09/06 08:40:07;;;;;;;5.18;1.75;;;31.90;84.10;;;;;;4955801;28;20066;-77
2023/09/06 08:42:35;;;;;;;3.65;2.03;;;32.50;82.20;;;;;;4954294;28;20152;-80
2023/09/06 08:45:03;;;;;;;2.58;1.80;;;33.00;80.00;;;;;;4970928;28;20063;-76
2023/09/06 08:47:29;;;;;;;2.53;1.40;;;;;;;;;;4973320;28;20116;-80
2023/09/06 08:49:56;;;;;;;3.70;1.50;;;33.80;75.00;;;;;;4958895;28;20850;-76
2023/09/06 08:52:22;;;;;;;4.72;1.65;;;34.10;73.30;;;;;;4949028;28;20563;-75
2023/09/06 08:54:49;;;;;;;2.53;1.45;;;;;;;;;;4956380;28;20070;-78
2023/09/06 08:57:15;;;;;;;3.50;1.10;;;34.70;72.30;;;;;;4960552;28;20061;-80
2023/09/06 08:59:42;;;;;;;2.08;0.88;;;34.80;68.90;;;;;;4958226;28;20071;-74
2023/09/06 09:02:12;;;;;;;2.58;0.90;;;34.90;67.60;;;;;;4959091;28;20096;-77
2023/09/06 09:04:42;;;;;;;2.27;0.87;;;34.90;67.30;;;;;;4949358;28;20137;-72
2023/09/06 09:07:10;;;;;;;2.05;0.70;;;35.00;67.00;;;;;;4954046;28;20133;-76
2023/09/06 09:09:58;;;;;;;2.85;0.90;;;35.00;65.60;;;;;;4949964;28;20066;-79
2023/09/06 09:12:26;;;;;;;3.60;0.93;;;35.10;64.90;;;;;;4942573;28;20085;-77
2023/09/06 09:14:54;;;;;;;2.47;0.98;;;35.10;64.10;;;;;;4968699;28;20125;-81
2023/09/06 09:17:24;;;;;;;3.67;1.02;;;35.20;64.10;;;;;;4954899;28;20512;-79
2023/09/06 09:19:53;;;;;;;7.00;1.08;;;35.20;63.60;;;;;;4938236;28;20161;-77
2023/09/06 09:22:35;;;;;;;2.90;1.10;;;35.30;63.20;;;;;;4921113;28;20513;-79
2023/09/06 09:25:15;;;;;;;2.63;0.90;;;35.20;62.60;;;;;;4934021;28;20069;-77
2023/09/06 09:27:46;;;;;;;3.58;0.90;;;35.60;63.50;;;;;;4943978;28;20422;-76
2023/09/06 09:30:14;;;;;;;2.65;0.85;;;35.80;63.90;;;;;;4944706;28;20440;-80
2023/09/06 09:32:40;;;;;;;1.50;0.70;;;35.90;62.70;;;;;;4938806;28;20564;-79
2023/09/06 16:08:33;;;;;;;1.95;0.55;;;;;;;;;;5000480;28;20040;-73
2023/09/06 16:10:59;;;;;;;1.95;0.60;;;;;;;;;;4940260;28;20595;-78
2023/09/06 16:13:25;;;;;;;2.53;0.40;;;;;;;;;;4942095;28;20126;-80
2023/09/06 16:15:51;;;;;;;2.53;0.50;;;;;;;;;;4924405;28;20063;-83
2023/09/06 16:18:18;;;;;;;4.13;0.60;;;27.00;77.30;;;;;;4939742;28;20589;-81
2023/09/06 16:20:44;;;;;;;2.28;0.40;;;;;;;;;;4922364;28;20065;-78
2023/09/06 16:23:11;;;;;;;4.18;1.02;;;26.90;77.70;;;;;;4957308;28;20053;-85
2023/09/06 16:25:37;;;;;;;3.08;0.50;;;;;;;;;;4935582;28;20410;-79
2023/09/06 16:28:06;;;;;;;1.77;0.50;;;26.70;77.80;;;;;;4929543;28;20576;-82
2023/09/06 16:30:34;;;;;;;2.65;0.30;;;;;;;;;;4954807;28;20067;-81
2023/09/06 16:33:00;;;;;;;2.65;0.40;;;;;;;;;;4939959;28;20689;-87
2023/09/06 16:35:26;;;;;;;0.65;0.25;;;26.80;83.30;;;;;;4942236;28;20054;-77
2023/09/06 16:37:52;;;;;;;2.58;0.50;;;26.70;83.50;;;;;;4941079;28;20054;-77
2023/09/06 16:40:21;;;;;;;3.22;0.50;;;;;;;;;;4941014;28;20058;-80
2023/09/06 16:42:50;;;;;;;3.17;0.35;;;26.40;87.30;;;;;;4924214;28;20667;-77
2023/09/06 16:45:18;;;;;;;2.78;0.60;;;;;;;;;;4937579;28;20138;-77
2023/09/06 16:47:47;;;;;;;2.40;0.50;;;26.10;82.90;;;;;;4918358;28;20054;-82
2023/09/06 16:50:13;;;;;;;3.75;0.55;;;;;;;;;;4956625;28;20047;-81
2023/09/06 16:52:40;;;;;;;3.25;0.50;;;;;;;;;;4941312;28;20054;-82
2023/09/06 16:55:09;;;;;;;2.33;0.50;;;;;;;;;;4924906;28;20492;-77
2023/09/06 16:57:36;;;;;;;3.78;0.40;;;25.70;83.20;;;;;;4939152;28;20058;-82
2023/09/06 17:00:04;;;;;;;2.33;0.30;;;26.30;83.10;;;;;;4935754;28;20055;-80
2023/09/06 17:02:31;;;;;;;3.40;0.50;;;25.50;83.00;;;;;;4934639;28;20211;-80
2023/09/06 17:04:58;;;;;;;0.82;0.30;;;;;;;;;;4941543;28;20452;-80
2023/09/06 17:07:24;;;;;;;4.40;0.60;;;;;;;;;;4932785;28;20058;-80
2023/09/06 17:09:50;;;;;;;2.85;0.70;;;;;;;;;;4936778;28;21678;-79
2023/09/06 17:12:17;;;;;;;3.50;0.60;;;;;;;;;;4931964;28;20169;-77
2023/09/06 17:14:43;;;;;;;1.50;0.50;;;;;;;;;;4954300;28;20713;-77
2023/09/06 17:17:09;;;;;;;3.28;0.60;;;;;;;;;;4937119;28;20053;-79
2023/09/06 17:19:36;;;;;;;3.55;0.60;;;;;;;;;;4941172;28;20046;-78
2023/09/06 17:22:03;;;;;;;2.72;0.75;;;;;;;;;;4922009;29;20523;-78
2023/09/06 17:24:29;;;;;;;5.65;1.00;;;;;;;;;;4931523;28;20054;-78
2023/09/06 17:26:55;;;;;;;6.72;1.40;;;;;;;;;;4938487;28;20516;-78
2023/09/06 17:29:21;;;;;;;4.63;1.08;;;;;;;;;;4932411;28;20042;-73
2023/09/06 17:31:49;;;;;;;4.63;1.35;;;;;;;;;;4932674;28;20058;-79
2023/09/06 17:34:15;;;;;;;2.15;0.50;;;;;;;;;;4939486;28;20154;-80
2023/09/06 17:36:41;;;;;;;2.60;0.47;;;;;;;;;;4923673;28;20804;-76
2023/09/06 17:39:09;;;;;;;2.22;0.73;;;24.60;89.60;;;;;;4933368;28;20118;-78
2023/09/06 17:41:38;;;;;;;3.38;0.57;;;24.50;89.80;;;;;;4934801;28;20082;-81
2023/09/06 17:44:06;;;;;;;2.33;0.50;;;24.40;90.00;;;;;;4916574;28;20524;-76
2023/09/06 17:46:36;;;;;;;1.90;0.70;;;24.30;90.40;;;;;;4932739;28;20057;-78
2023/09/06 17:49:05;;;;;;;2.97;0.40;;;24.40;90.50;;;;;;4935617;28;20548;-73
2023/09/06 17:51:31;;;;;;;2.92;0.70;;;;;;;;;;4926746;29;20070;-78
2023/09/06 17:53:59;;;;;;;2.17;0.50;;;;;;;;;;4937305;28;20062;-81
2023/09/06 17:56:26;;;;;;;1.90;1.00;;;;;;;;;;4920812;28;20086;-76
2023/09/06 17:58:53;;;;;;;3.35;0.73;;;;;;;;;;4938023;28;20084;-77
2023/09/06 18:01:21;;;;;;;1.58;0.60;;;23.60;91.30;;;;;;4939326;28;20137;-80
2023/09/06 18:03:51;;;;;;;1.35;0.65;;;23.50;91.60;;;;;;4939983;28;20501;-82
2023/09/06 18:06:24;;;;;;;2.05;0.70;;;23.40;91.80;;;;;;4934927;28;20546;-80
